Kahuku, Hawaii
Current Conditions -  °F | °C
As of 10:58 AM on Friday 28 Nov 2014 (Local Time) from PHHI Reporting Station
Clear Clear  
Wind Chill: 24°   Ceiling: Unl
Heat Index: 24°   Visibility: 10mi
Dew Point: 18°   Wind: 18mph
Humidity: 67%   Direction: 50°NE
Pressure: 30.08"   Gusts: 26mph
Location:  21.67°N, 157.94°W
Report Text: PHHI 282058Z AUTO 05016G23KT 10SM CLR 24/18 A3008 RMK AO2 SLP177 T02410176 58002 $
Loading
Personal Weather Stations






























Interactive Weather Map New forecast layout! Learn more

10-Day Weather Forecast

Advertisements
Track Severe Weather on mobile